sensor_id;sensor_type;location;lat;lon;timestamp;pressure;altitude;pressure_sealevel;temperature;humidity
67842;BME280;54642;59.126;37.876;2023-04-28T00:00:28;99789.81;;;10.68;63.44
67842;BME280;54642;59.126;37.876;2023-04-28T00:02:54;99743.41;;;10.41;63.28
67842;BME280;54642;59.126;37.876;2023-04-28T00:05:20;99789.81;;;10.68;63.31
67842;BME280;54642;59.126;37.876;2023-04-28T00:07:48;99738.31;;;10.36;63.33
67842;BME280;54642;59.126;37.876;2023-04-28T00:10:14;99792.41;;;10.65;63.41
67842;BME280;54642;59.126;37.876;2023-04-28T00:12:40;99785.56;;;10.60;63.19
67842;BME280;54642;59.126;37.876;2023-04-28T00:15:06;99744.41;;;10.23;62.91
67842;BME280;54642;59.126;37.876;2023-04-28T00:17:32;99804.63;;;10.51;63.20
67842;BME280;54642;59.126;37.876;2023-04-28T00:19:58;99801.22;;;10.49;63.19
67842;BME280;54642;59.126;37.876;2023-04-28T00:22:24;99793.44;;;10.49;62.97
67842;BME280;54642;59.126;37.876;2023-04-28T00:24:50;99790.88;;;10.46;63.02
67842;BME280;54642;59.126;37.876;2023-04-28T00:27:16;99721.28;;;10.04;63.42
67842;BME280;54642;59.126;37.876;2023-04-28T00:29:42;99773.72;;;10.36;63.01
67842;BME280;54642;59.126;37.876;2023-04-28T00:32:08;99763.38;;;10.26;63.21
67842;BME280;54642;59.126;37.876;2023-04-28T00:34:34;99771.06;;;10.39;63.40
67842;BME280;54642;59.126;37.876;2023-04-28T00:37:02;99774.56;;;10.35;63.28
67842;BME280;54642;59.126;37.876;2023-04-28T00:39:29;99782.34;;;10.35;63.29
67842;BME280;54642;59.126;37.876;2023-04-28T00:41:54;99758.28;;;10.16;63.18
67842;BME280;54642;59.126;37.876;2023-04-28T00:44:20;99698.13;;;9.87;63.08
67842;BME280;54642;59.126;37.876;2023-04-28T00:46:46;99775.41;;;10.40;63.33
67842;BME280;54642;59.126;37.876;2023-04-28T00:49:14;99783.97;;;10.46;63.01
67842;BME280;54642;59.126;37.876;2023-04-28T00:51:41;99772.78;;;10.41;62.95
67842;BME280;54642;59.126;37.876;2023-04-28T00:54:07;99796.06;;;10.44;63.19
67842;BME280;54642;59.126;37.876;2023-04-28T00:56:33;99795.16;;;10.50;63.41
67842;BME280;54642;59.126;37.876;2023-04-28T00:58:59;99795.16;;;10.50;63.22
67842;BME280;54642;59.126;37.876;2023-04-28T01:01:25;99798.63;;;10.49;63.50
67842;BME280;54642;59.126;37.876;2023-04-28T01:03:50;99784.84;;;10.44;63.70
67842;BME280;54642;59.126;37.876;2023-04-28T01:06:17;99789.19;;;10.42;63.82
67842;BME280;54642;59.126;37.876;2023-04-28T01:08:49;99797.78;;;10.44;63.90
67842;BME280;54642;59.126;37.876;2023-04-28T01:11:16;99790.94;;;10.38;64.29
67842;BME280;54642;59.126;37.876;2023-04-28T01:14:08;99793.53;;;10.38;64.04
67842;BME280;54642;59.126;37.876;2023-04-28T01:16:38;99796.16;;;10.30;64.40
67842;BME280;54642;59.126;37.876;2023-04-28T01:19:06;99791.91;;;10.22;64.70
67842;BME280;54642;59.126;37.876;2023-04-28T01:21:34;99752.41;;;9.98;65.31
67842;BME280;54642;59.126;37.876;2023-04-28T01:24:16;99799.59;;;10.29;65.05
67842;BME280;54642;59.126;37.876;2023-04-28T01:26:42;99786.72;;;10.23;64.83
67842;BME280;54642;59.126;37.876;2023-04-28T01:29:09;99779.03;;;10.13;65.13
67842;BME280;54642;59.126;37.876;2023-04-28T01:31:35;99779.81;;;10.24;65.71
67842;BME280;54642;59.126;37.876;2023-04-28T01:34:01;99780.63;;;10.30;65.09
67842;BME280;54642;59.126;37.876;2023-04-28T01:36:27;99780.72;;;10.17;65.52
67842;BME280;54642;59.126;37.876;2023-04-28T01:38:53;99770.28;;;10.24;65.51
67842;BME280;54642;59.126;37.876;2023-04-28T01:41:20;99759.09;;;10.21;65.42
67842;BME280;54642;59.126;37.876;2023-04-28T01:43:48;99770.28;;;10.24;65.74
67842;BME280;54642;59.126;37.876;2023-04-28T01:46:14;99771.22;;;10.19;65.65
67842;BME280;54642;59.126;37.876;2023-04-28T01:48:40;99755.75;;;10.13;65.66
67842;BME280;54642;59.126;37.876;2023-04-28T01:51:06;99763.44;;;10.19;65.54
67842;BME280;54642;59.126;37.876;2023-04-28T01:53:32;99769.47;;;10.21;65.37
67842;BME280;54642;59.126;37.876;2023-04-28T01:55:58;99771.22;;;10.16;65.52
67842;BME280;54642;59.126;37.876;2023-04-28T01:58:24;99775.63;;;10.09;65.70
67842;BME280;54642;59.126;37.876;2023-04-28T02:00:50;99767.88;;;10.04;65.77
67842;BME280;54642;59.126;37.876;2023-04-28T02:03:18;99724.94;;;9.77;65.69
67842;BME280;54642;59.126;37.876;2023-04-28T02:05:44;99772.22;;;10.01;66.37
67842;BME280;54642;59.126;37.876;2023-04-28T02:08:10;99762.75;;;9.98;65.72
67842;BME280;54642;59.126;37.876;2023-04-28T02:10:36;99762.72;;;10.01;65.82
67842;BME280;54642;59.126;37.876;2023-04-28T02:13:02;99756.47;;;10.27;65.78
67842;BME280;54642;59.126;37.876;2023-04-28T02:15:28;99765.00;;;10.43;65.06
67842;BME280;54642;59.126;37.876;2023-04-28T02:17:55;99770.25;;;10.34;65.32
67842;BME280;54642;59.126;37.876;2023-04-28T02:20:20;99714.44;;;9.96;65.21
67842;BME280;54642;59.126;37.876;2023-04-28T02:22:47;99766.09;;;10.11;65.57
67842;BME280;54642;59.126;37.876;2023-04-28T02:25:14;99673.34;;;9.52;65.81
67842;BME280;54642;59.126;37.876;2023-04-28T02:27:39;99749.81;;;9.93;65.65
67842;BME280;54642;59.126;37.876;2023-04-28T02:30:06;99760.16;;;9.98;65.84
67842;BME280;54642;59.126;37.876;2023-04-28T02:32:32;99764.47;;;9.96;65.87
67842;BME280;54642;59.126;37.876;2023-04-28T02:34:58;99760.25;;;9.87;66.35
67842;BME280;54642;59.126;37.876;2023-04-28T02:37:25;99710.41;;;9.58;66.07
67842;BME280;54642;59.126;37.876;2023-04-28T02:39:51;99755.97;;;9.79;66.31
67842;BME280;54642;59.126;37.876;2023-04-28T02:42:19;99743.03;;;9.77;66.46
67842;BME280;54642;59.126;37.876;2023-04-28T02:44:45;99744.75;;;9.81;66.70
67842;BME280;54642;59.126;37.876;2023-04-28T02:47:11;99697.53;;;9.48;66.38
67842;BME280;54642;59.126;37.876;2023-04-28T02:49:37;99739.69;;;9.64;66.47
67842;BME280;54642;59.126;37.876;2023-04-28T02:52:03;99760.31;;;9.75;66.58
67842;BME280;54642;59.126;37.876;2023-04-28T02:54:29;99753.41;;;9.71;66.46
67842;BME280;54642;59.126;37.876;2023-04-28T02:56:57;99763.69;;;9.82;66.33
67842;BME280;54642;59.126;37.876;2023-04-28T02:59:23;99766.28;;;9.83;66.31
67842;BME280;54642;59.126;37.876;2023-04-28T03:01:50;99756.00;;;9.72;66.41
67842;BME280;54642;59.126;37.876;2023-04-28T03:04:19;99777.53;;;9.82;66.55
67842;BME280;54642;59.126;37.876;2023-04-28T03:06:45;99772.34;;;9.82;66.36
67842;BME280;54642;59.126;37.876;2023-04-28T03:09:11;99773.28;;;9.67;66.48
67842;BME280;54642;59.126;37.876;2023-04-28T03:11:37;99771.66;;;9.49;66.78
67842;BME280;54642;59.126;37.876;2023-04-28T03:14:03;99737.28;;;9.30;66.71
67842;BME280;54642;59.126;37.876;2023-04-28T03:16:29;99777.66;;;9.59;67.14
67842;BME280;54642;59.126;37.876;2023-04-28T03:18:55;99758.69;;;9.59;66.60
67842;BME280;54642;59.126;37.876;2023-04-28T03:21:21;99786.22;;;9.72;66.52
67842;BME280;54642;59.126;37.876;2023-04-28T03:23:47;99763.03;;;9.52;66.92
67842;BME280;54642;59.126;37.876;2023-04-28T03:26:13;99781.16;;;9.49;66.76
67842;BME280;54642;59.126;37.876;2023-04-28T03:28:39;99781.16;;;9.50;66.61
67842;BME280;54642;59.126;37.876;2023-04-28T03:31:05;99802.63;;;9.62;66.75
67842;BME280;54642;59.126;37.876;2023-04-28T03:33:30;99796.69;;;9.44;66.87
67842;BME280;54642;59.126;37.876;2023-04-28T03:35:58;99797.56;;;9.42;67.20
67842;BME280;54642;59.126;37.876;2023-04-28T03:38:24;99797.56;;;9.46;66.85
67842;BME280;54642;59.126;37.876;2023-04-28T03:40:50;99794.09;;;9.49;67.11
67842;BME280;54642;59.126;37.876;2023-04-28T03:43:36;99748.53;;;9.22;67.17
67842;BME280;54642;59.126;37.876;2023-04-28T03:46:24;99788.97;;;9.38;67.25
67842;BME280;54642;59.126;37.876;2023-04-28T03:48:51;99771.75;;;9.26;67.43
67842;BME280;54642;59.126;37.876;2023-04-28T03:51:18;99782.94;;;9.33;67.53
67842;BME280;54642;59.126;37.876;2023-04-28T03:53:44;99714.19;;;8.92;67.54
67842;BME280;54642;59.126;37.876;2023-04-28T03:56:10;99768.31;;;9.26;67.64
67842;BME280;54642;59.126;37.876;2023-04-28T03:58:38;99809.59;;;9.46;67.85
67842;BME280;54642;59.126;37.876;2023-04-28T04:01:04;99783.78;;;9.38;67.23
67842;BME280;54642;59.126;37.876;2023-04-28T04:03:30;99792.38;;;9.43;67.51
67842;BME280;54642;59.126;37.876;2023-04-28T04:05:56;99774.25;;;9.49;67.25
67842;BME280;54642;59.126;37.876;2023-04-28T04:08:23;99772.50;;;9.53;67.45
67842;BME280;54642;59.126;37.876;2023-04-28T04:10:49;99752.69;;;9.50;67.42
67842;BME280;54642;59.126;37.876;2023-04-28T04:13:15;99775.94;;;9.57;67.53
67842;BME280;54642;59.126;37.876;2023-04-28T04:15:42;99758.78;;;9.43;67.44
67842;BME280;54642;59.126;37.876;2023-04-28T04:18:09;99758.78;;;9.39;67.71
67842;BME280;54642;59.126;37.876;2023-04-28T04:21:10;99718.41;;;9.13;67.81
67842;BME280;54642;59.126;37.876;2023-04-28T04:23:36;99746.72;;;9.39;67.95
67842;BME280;54642;59.126;37.876;2023-04-28T04:26:02;99754.44;;;9.44;68.01
67842;BME280;54642;59.126;37.876;2023-04-28T04:28:28;99741.50;;;9.47;67.87
67842;BME280;54642;59.126;37.876;2023-04-28T04:30:53;99751.84;;;9.51;67.77
67842;BME280;54642;59.126;37.876;2023-04-28T04:33:19;99759.56;;;9.58;67.80
67842;BME280;54642;59.126;37.876;2023-04-28T04:35:45;99717.44;;;9.31;67.73
67842;BME280;54642;59.126;37.876;2023-04-28T04:38:12;99771.56;;;9.66;67.63
67842;BME280;54642;59.126;37.876;2023-04-28T04:40:38;99718.25;;;9.44;67.33
67842;BME280;54642;59.126;37.876;2023-04-28T04:43:03;99769.81;;;9.73;67.59
67842;BME280;54642;59.126;37.876;2023-04-28T04:45:36;99767.16;;;9.82;67.33
67842;BME280;54642;59.126;37.876;2023-04-28T04:48:02;99757.63;;;9.89;67.26
67842;BME280;54642;59.126;37.876;2023-04-28T04:50:28;99758.44;;;9.92;67.26
67842;BME280;54642;59.126;37.876;2023-04-28T04:52:55;99745.56;;;9.85;67.22
67842;BME280;54642;59.126;37.876;2023-04-28T04:55:23;99738.72;;;9.76;67.25
67842;BME280;54642;59.126;37.876;2023-04-28T04:57:50;99755.09;;;9.81;67.47
67842;BME280;54642;59.126;37.876;2023-04-28T05:00:49;99756.75;;;9.88;67.43
67842;BME280;54642;59.126;37.876;2023-04-28T05:03:14;99753.34;;;9.86;67.45
67842;BME280;54642;59.126;37.876;2023-04-28T05:05:41;99756.81;;;9.82;67.44
67842;BME280;54642;59.126;37.876;2023-04-28T05:08:12;99743.91;;;9.79;67.52
67842;BME280;54642;59.126;37.876;2023-04-28T05:10:38;99748.16;;;9.89;67.65
67842;BME280;54642;59.126;37.876;2023-04-28T05:13:04;99755.91;;;9.89;67.80
67842;BME280;54642;59.126;37.876;2023-04-28T05:15:30;99766.22;;;9.96;67.78
67842;BME280;54642;59.126;37.876;2023-04-28T05:18:19;99759.25;;;10.01;67.58
67842;BME280;54642;59.126;37.876;2023-04-28T05:20:45;99766.94;;;10.16;67.39
67842;BME280;54642;59.126;37.876;2023-04-28T05:23:12;99759.09;;;10.24;67.00
67842;BME280;54642;59.126;37.876;2023-04-28T05:25:38;99760.84;;;10.17;67.40
67842;BME280;54642;59.126;37.876;2023-04-28T05:28:04;99770.28;;;10.24;67.36
67842;BME280;54642;59.126;37.876;2023-04-28T05:30:32;99705.81;;;9.93;67.21
67842;BME280;54642;59.126;37.876;2023-04-28T05:32:58;99762.50;;;10.27;67.49
67842;BME280;54642;59.126;37.876;2023-04-28T05:35:25;99770.28;;;10.29;67.11
67842;BME280;54642;59.126;37.876;2023-04-28T05:37:51;99765.09;;;10.27;67.38
67842;BME280;54642;59.126;37.876;2023-04-28T05:40:17;99753.00;;;10.33;67.38
67842;BME280;54642;59.126;37.876;2023-04-28T05:42:43;99763.25;;;10.45;67.15
67842;BME280;54642;59.126;37.876;2023-04-28T05:45:10;99715.09;;;10.21;67.20
67842;BME280;54642;59.126;37.876;2023-04-28T05:47:36;99722.81;;;10.28;67.12
67842;BME280;54642;59.126;37.876;2023-04-28T05:50:02;99757.06;;;10.58;67.21
67842;BME280;54642;59.126;37.876;2023-04-28T05:52:29;99766.50;;;10.65;67.31
67842;BME280;54642;59.126;37.876;2023-04-28T05:54:54;99763.06;;;10.66;67.32
67842;BME280;54642;59.126;37.876;2023-04-28T05:57:21;99762.97;;;10.73;67.10
67842;BME280;54642;59.126;37.876;2023-04-28T05:59:47;99765.59;;;10.71;67.12
67842;BME280;54642;59.126;37.876;2023-04-28T06:02:13;99757.03;;;10.66;67.31
67842;BME280;54642;59.126;37.876;2023-04-28T06:04:39;99746.66;;;10.64;67.32
67842;BME280;54642;59.126;37.876;2023-04-28T06:07:05;99754.38;;;10.71;67.42
67842;BME280;54642;59.126;37.876;2023-04-28T06:09:32;99754.38;;;10.67;67.42
67842;BME280;54642;59.126;37.876;2023-04-28T06:11:58;99742.13;;;10.83;67.22
67842;BME280;54642;59.126;37.876;2023-04-28T06:14:25;99731.50;;;11.06;67.08
67842;BME280;54642;59.126;37.876;2023-04-28T06:16:50;99733.78;;;11.31;66.69
67842;BME280;54642;59.126;37.876;2023-04-28T06:19:16;99732.63;;;11.54;66.41
67842;BME280;54642;59.126;37.876;2023-04-28T06:21:45;99735.09;;;11.61;65.95
67842;BME280;54642;59.126;37.876;2023-04-28T06:24:12;99727.38;;;11.55;66.04
67842;BME280;54642;59.126;37.876;2023-04-28T06:26:40;99741.94;;;11.66;65.89
67842;BME280;54642;59.126;37.876;2023-04-28T06:29:08;99738.47;;;11.68;65.82
67842;BME280;54642;59.126;37.876;2023-04-28T06:31:34;99714.50;;;11.51;65.91
67842;BME280;54642;59.126;37.876;2023-04-28T06:34:00;99709.22;;;11.55;66.15
67842;BME280;54642;59.126;37.876;2023-04-28T06:36:26;99690.84;;;11.69;66.03
67842;BME280;54642;59.126;37.876;2023-04-28T06:38:53;99732.91;;;11.93;65.41
67842;BME280;54642;59.126;37.876;2023-04-28T06:41:19;99707.09;;;11.82;65.77
67842;BME280;54642;59.126;37.876;2023-04-28T06:43:48;99742.38;;;11.97;65.49
67842;BME280;54642;59.126;37.876;2023-04-28T06:46:28;99689.22;;;11.63;65.53
67842;BME280;54642;59.126;37.876;2023-04-28T06:48:54;99733.66;;;12.01;65.71
67842;BME280;54642;59.126;37.876;2023-04-28T06:51:20;99724.75;;;12.16;65.53
67842;BME280;54642;59.126;37.876;2023-04-28T06:53:46;99723.50;;;12.38;65.17
67842;BME280;54642;59.126;37.876;2023-04-28T06:56:13;99741.28;;;12.62;64.78
67842;BME280;54642;59.126;37.876;2023-04-28T06:58:39;99739.50;;;12.64;64.61
67842;BME280;54642;59.126;37.876;2023-04-28T07:01:05;99741.34;;;12.57;64.70
67842;BME280;54642;59.126;37.876;2023-04-28T07:03:31;99736.00;;;12.66;64.62
67842;BME280;54642;59.126;37.876;2023-04-28T07:05:57;99741.28;;;12.62;64.62
67842;BME280;54642;59.126;37.876;2023-04-28T07:08:23;99750.03;;;12.57;64.58
67842;BME280;54642;59.126;37.876;2023-04-28T07:10:49;99613.84;;;11.70;65.10
67842;BME280;54642;59.126;37.876;2023-04-28T07:13:15;99744.78;;;12.59;64.81
67842;BME280;54642;59.126;37.876;2023-04-28T07:15:41;99730.97;;;12.55;64.72
67842;BME280;54642;59.126;37.876;2023-04-28T07:18:07;99653.97;;;12.05;64.85
67842;BME280;54642;59.126;37.876;2023-04-28T07:20:32;99714.69;;;12.47;64.70
67842;BME280;54642;59.126;37.876;2023-04-28T07:22:58;99732.88;;;12.47;65.00
67842;BME280;54642;59.126;37.876;2023-04-28T07:25:24;99721.78;;;12.37;65.24
67842;BME280;54642;59.126;37.876;2023-04-28T07:27:50;99725.09;;;12.47;65.13
67842;BME280;54642;59.126;37.876;2023-04-28T07:30:16;99726.53;;;12.62;64.94
67842;BME280;54642;59.126;37.876;2023-04-28T07:32:42;99691.94;;;12.58;64.65
67842;BME280;54642;59.126;37.876;2023-04-28T07:35:08;99682.09;;;12.76;64.17
67842;BME280;54642;59.126;37.876;2023-04-28T07:37:36;99721.03;;;13.21;64.23
67842;BME280;54642;59.126;37.876;2023-04-28T07:40:02;99713.75;;;13.39;63.64
67842;BME280;54642;59.126;37.876;2023-04-28T07:42:28;99705.47;;;13.60;63.58
67842;BME280;54642;59.126;37.876;2023-04-28T07:44:54;99718.66;;;13.90;63.26
67842;BME280;54642;59.126;37.876;2023-04-28T07:47:22;99707.03;;;14.03;62.63
67842;BME280;54642;59.126;37.876;2023-04-28T07:49:48;99721.09;;;14.32;62.61
67842;BME280;54642;59.126;37.876;2023-04-28T07:52:14;99724.59;;;14.31;62.36
67842;BME280;54642;59.126;37.876;2023-04-28T07:54:40;99680.34;;;13.95;62.36
67842;BME280;54642;59.126;37.876;2023-04-28T07:57:06;99710.97;;;14.20;62.27
67842;BME280;54642;59.126;37.876;2023-04-28T07:59:33;99659.81;;;13.83;62.48
67842;BME280;54642;59.126;37.876;2023-04-28T08:01:59;99705.91;;;14.15;62.59
67842;BME280;54642;59.126;37.876;2023-04-28T08:04:25;99711.41;;;14.03;62.60
67842;BME280;54642;59.126;37.876;2023-04-28T08:06:51;99710.13;;;13.83;62.97
67842;BME280;54642;59.126;37.876;2023-04-28T08:09:17;99713.06;;;13.69;63.02
67842;BME280;54642;59.126;37.876;2023-04-28T08:11:43;99666.91;;;13.39;63.18
67842;BME280;54642;59.126;37.876;2023-04-28T08:14:09;99700.09;;;13.66;63.30
67842;BME280;54642;59.126;37.876;2023-04-28T08:16:35;99694.72;;;13.76;63.31
67842;BME280;54642;59.126;37.876;2023-04-28T08:19:04;99686.06;;;13.73;62.91
67842;BME280;54642;59.126;37.876;2023-04-28T08:21:30;99693.38;;;13.95;63.14
67842;BME280;54642;59.126;37.876;2023-04-28T08:23:57;99604.50;;;13.71;62.63
67842;BME280;54642;59.126;37.876;2023-04-28T08:26:24;99641.06;;;14.03;62.50
67842;BME280;54642;59.126;37.876;2023-04-28T08:28:50;99672.75;;;14.53;62.01
67842;BME280;54642;59.126;37.876;2023-04-28T08:31:16;99671.72;;;14.60;62.09
67842;BME280;54642;59.126;37.876;2023-04-28T08:33:42;99683.13;;;14.55;62.18
67842;BME280;54642;59.126;37.876;2023-04-28T08:36:09;99670.06;;;14.58;62.20
67842;BME280;54642;59.126;37.876;2023-04-28T08:38:37;99670.06;;;14.56;61.72
67842;BME280;54642;59.126;37.876;2023-04-28T08:41:04;99676.91;;;14.60;62.03
67842;BME280;54642;59.126;37.876;2023-04-28T08:43:33;99675.63;;;14.75;61.68
67842;BME280;54642;59.126;37.876;2023-04-28T08:46:04;99663.59;;;14.71;61.70
67842;BME280;54642;59.126;37.876;2023-04-28T08:48:41;99655.03;;;14.66;61.79
67842;BME280;54642;59.126;37.876;2023-04-28T08:51:08;99620.25;;;14.67;61.63
67842;BME280;54642;59.126;37.876;2023-04-28T08:53:37;99651.13;;;15.11;61.33
67842;BME280;54642;59.126;37.876;2023-04-28T08:56:05;99666.53;;;15.18;61.43
67842;BME280;54642;59.126;37.876;2023-04-28T08:58:34;99661.47;;;15.14;60.99
67842;BME280;54642;59.126;37.876;2023-04-28T09:01:01;99659.59;;;15.19;60.98
67842;BME280;54642;59.126;37.876;2023-04-28T09:03:30;99642.59;;;15.34;60.82
67842;BME280;54642;59.126;37.876;2023-04-28T09:05:57;99647.44;;;15.73;60.50
67842;BME280;54642;59.126;37.876;2023-04-28T09:08:23;99633.22;;;15.83;60.04
67842;BME280;54642;59.126;37.876;2023-04-28T09:11:08;99603.09;;;15.98;59.64
67842;BME280;54642;59.126;37.876;2023-04-28T09:13:35;99639.38;;;16.32;59.29
67842;BME280;54642;59.126;37.876;2023-04-28T09:16:02;99610.66;;;16.06;59.25
67842;BME280;54642;59.126;37.876;2023-04-28T09:18:29;99637.16;;;15.95;58.88
67842;BME280;54642;59.126;37.876;2023-04-28T09:21:08;99645.75;;;15.98;59.00
67842;BME280;54642;59.126;37.876;2023-04-28T09:23:46;99635.16;;;16.03;59.32
67842;BME280;54642;59.126;37.876;2023-04-28T09:26:15;99639.41;;;16.06;58.89
67842;BME280;54642;59.126;37.876;2023-04-28T09:28:41;99623.63;;;16.09;59.25
67842;BME280;54642;59.126;37.876;2023-04-28T09:31:22;99626.16;;;16.12;59.17
67842;BME280;54642;59.126;37.876;2023-04-28T09:33:58;99633.66;;;16.21;59.15
67842;BME280;54642;59.126;37.876;2023-04-28T09:36:28;99612.00;;;16.17;59.26
67842;BME280;54642;59.126;37.876;2023-04-28T09:38:58;99579.72;;;16.18;58.88
67842;BME280;54642;59.126;37.876;2023-04-28T09:41:35;99613.41;;;16.51;58.47
67842;BME280;54642;59.126;37.876;2023-04-28T09:44:13;99617.13;;;16.69;58.17
67842;BME280;54642;59.126;37.876;2023-04-28T09:46:41;99594.81;;;16.59;58.42
67842;BME280;54642;59.126;37.876;2023-04-28T09:49:07;99575.25;;;16.69;58.11
67842;BME280;54642;59.126;37.876;2023-04-28T09:51:34;99609.59;;;17.07;57.78
67842;BME280;54642;59.126;37.876;2023-04-28T09:54:01;99597.13;;;17.14;57.48
67842;BME280;54642;59.126;37.876;2023-04-28T09:56:29;99608.47;;;17.37;57.55
67842;BME280;54642;59.126;37.876;2023-04-28T09:58:59;99607.22;;;17.45;57.24
67842;BME280;54642;59.126;37.876;2023-04-28T10:01:29;99575.06;;;17.20;56.95
67842;BME280;54642;59.126;37.876;2023-04-28T10:03:59;99609.72;;;17.48;56.97
67842;BME280;54642;59.126;37.876;2023-04-28T10:06:26;99609.72;;;17.48;56.68
67842;BME280;54642;59.126;37.876;2023-04-28T10:08:54;99605.97;;;17.33;56.53
67842;BME280;54642;59.126;37.876;2023-04-28T10:11:22;99609.13;;;17.20;56.75
67842;BME280;54642;59.126;37.876;2023-04-28T10:13:51;99614.16;;;17.02;56.19
67842;BME280;54642;59.126;37.876;2023-04-28T10:16:18;99600.34;;;16.99;57.41
67842;BME280;54642;59.126;37.876;2023-04-28T10:18:44;99595.34;;;17.14;57.18
67842;BME280;54642;59.126;37.876;2023-04-28T10:21:13;99598.88;;;17.36;57.18
67842;BME280;54642;59.126;37.876;2023-04-28T10:26:34;99589.81;;;17.44;57.04
67842;BME280;54642;59.126;37.876;2023-04-28T10:29:12;99600.69;;;17.56;57.08
67842;BME280;54642;59.126;37.876;2023-04-28T10:34:39;99558.19;;;17.27;56.71
67842;BME280;54642;59.126;37.876;2023-04-28T10:37:05;99593.69;;;17.56;56.96
67842;BME280;54642;59.126;37.876;2023-04-28T10:39:31;99587.75;;;17.73;56.88
67842;BME280;54642;59.126;37.876;2023-04-28T10:41:57;99583.03;;;17.81;56.43
67842;BME280;54642;59.126;37.876;2023-04-28T10:46:59;99557.03;;;17.97;56.02
67842;BME280;54642;59.126;37.876;2023-04-28T10:55:34;99546.31;;;18.22;55.61
67842;BME280;54642;59.126;37.876;2023-04-28T11:00:54;99539.63;;;18.36;55.28
67842;BME280;54642;59.126;37.876;2023-04-28T11:06:33;99525.00;;;18.30;55.52
67842;BME280;54642;59.126;37.876;2023-04-28T11:14:36;99502.53;;;18.24;55.72
67842;BME280;54642;59.126;37.876;2023-04-28T11:17:04;99505.06;;;18.26;55.26
67842;BME280;54642;59.126;37.876;2023-04-28T11:19:32;99503.97;;;18.32;55.41
67842;BME280;54642;59.126;37.876;2023-04-28T11:22:03;99486.50;;;18.31;55.12
67842;BME280;54642;59.126;37.876;2023-04-28T11:24:30;99489.06;;;18.51;55.49
67842;BME280;54642;59.126;37.876;2023-04-28T11:26:57;99476.28;;;18.62;54.92
67842;BME280;54642;59.126;37.876;2023-04-28T11:29:34;99461.41;;;18.44;55.01
67842;BME280;54642;59.126;37.876;2023-04-28T11:32:04;99492.25;;;18.39;55.26
67842;BME280;54642;59.126;37.876;2023-04-28T11:34:31;99460.69;;;18.02;55.12
67842;BME280;54642;59.126;37.876;2023-04-28T11:36:57;99489.19;;;18.10;55.35
67842;BME280;54642;59.126;37.876;2023-04-28T11:39:30;99501.59;;;18.06;55.36
67842;BME280;54642;59.126;37.876;2023-04-28T11:42:01;99450.81;;;17.68;55.53
67842;BME280;54642;59.126;37.876;2023-04-28T11:44:30;99497.81;;;17.93;55.65
67842;BME280;54642;59.126;37.876;2023-04-28T11:47:00;99509.00;;;17.97;55.76
67842;BME280;54642;59.126;37.876;2023-04-28T11:49:29;99513.47;;;17.95;55.82
67842;BME280;54642;59.126;37.876;2023-04-28T11:51:56;99512.13;;;17.84;55.92
67842;BME280;54642;59.126;37.876;2023-04-28T11:54:27;99521.75;;;17.85;56.03
67842;BME280;54642;59.126;37.876;2023-04-28T11:56:55;99518.56;;;17.77;56.42
67842;BME280;54642;59.126;37.876;2023-04-28T11:59:27;99516.41;;;17.66;56.29
67842;BME280;54642;59.126;37.876;2023-04-28T12:02:01;99514.63;;;17.67;56.44
67842;BME280;54642;59.126;37.876;2023-04-28T12:04:33;99493.41;;;17.52;56.41
67842;BME280;54642;59.126;37.876;2023-04-28T12:09:39;99515.94;;;17.57;56.47
67842;BME280;54642;59.126;37.876;2023-04-28T12:12:07;99507.03;;;17.40;56.50
67842;BME280;54642;59.126;37.876;2023-04-28T12:17:33;99500.41;;;17.31;57.23
67842;BME280;54642;59.126;37.876;2023-04-28T12:20:01;99497.84;;;17.30;57.31
67842;BME280;54642;59.126;37.876;2023-04-28T12:22:29;99465.63;;;17.07;57.78
67842;BME280;54642;59.126;37.876;2023-04-28T12:25:05;99476.28;;;17.03;58.50
67842;BME280;54642;59.126;37.876;2023-04-28T12:27:33;99529.97;;;17.13;59.04
67842;BME280;54642;59.126;37.876;2023-04-28T12:29:59;99565.34;;;17.01;60.22
67842;BME280;54642;59.126;37.876;2023-04-28T12:32:40;99602.56;;;16.86;61.65
67842;BME280;54642;59.126;37.876;2023-04-28T12:35:09;99591.31;;;16.60;62.87
67842;BME280;54642;59.126;37.876;2023-04-28T12:37:36;99579.19;;;16.09;64.69
67842;BME280;54642;59.126;37.876;2023-04-28T12:40:08;99579.47;;;15.76;66.09
67842;BME280;54642;59.126;37.876;2023-04-28T12:42:34;99585.91;;;15.64;67.38
67842;BME280;54642;59.126;37.876;2023-04-28T12:45:00;99593.09;;;15.57;67.56
67842;BME280;54642;59.126;37.876;2023-04-28T12:47:26;99587.13;;;15.54;68.40
67842;BME280;54642;59.126;37.876;2023-04-28T12:49:53;99593.31;;;15.51;69.05
67842;BME280;54642;59.126;37.876;2023-04-28T12:52:19;99586.50;;;15.47;69.25
67842;BME280;54642;59.126;37.876;2023-04-28T12:54:46;99590.97;;;15.43;69.63
67842;BME280;54642;59.126;37.876;2023-04-28T12:57:12;99572.06;;;15.35;69.33
67842;BME280;54642;59.126;37.876;2023-04-28T12:59:39;99570.50;;;15.30;69.59
67842;BME280;54642;59.126;37.876;2023-04-28T13:02:04;99567.19;;;15.24;70.16
67842;BME280;54642;59.126;37.876;2023-04-28T13:04:30;99575.09;;;15.21;70.23
67842;BME280;54642;59.126;37.876;2023-04-28T13:06:57;99560.78;;;15.06;71.08
67842;BME280;54642;59.126;37.876;2023-04-28T13:09:24;99494.38;;;14.60;71.15
67842;BME280;54642;59.126;37.876;2023-04-28T13:11:50;99563.66;;;14.99;70.93
67842;BME280;54642;59.126;37.876;2023-04-28T13:14:19;99562.91;;;14.95;71.18
67842;BME280;54642;59.126;37.876;2023-04-28T13:16:45;99561.13;;;14.96;71.65
67842;BME280;54642;59.126;37.876;2023-04-28T13:19:12;99559.31;;;14.98;71.63
67842;BME280;54642;59.126;37.876;2023-04-28T13:21:42;99558.44;;;14.99;71.63
67842;BME280;54642;59.126;37.876;2023-04-28T13:24:09;99555.00;;;14.97;71.72
67842;BME280;54642;59.126;37.876;2023-04-28T13:26:35;99541.09;;;14.96;71.78